Grover, North Carolina
Current Conditions -  °F | °C
As of 8:35 AM on Friday 28 Nov 2014 (Local Time) from KEHO Reporting Station
Clear Clear  
Wind Chill: 30°   Ceiling: Unl
Heat Index: 30°   Visibility: 10mi
Dew Point: 19°   Wind: 0mph
Humidity: 66%   Direction: NA
Pressure: 30.39"   Gusts: NA
Location:  35.17°N, 81.45°W
Report Text: KEHO 281335Z AUTO 00000KT 10SM CLR M01/M07 A3039 RMK AO2 T10131070
Loading
Personal Weather Stations






























Interactive Weather Map New forecast layout! Learn more

10-Day Weather Forecast

Advertisements
Track Severe Weather on mobile